Skip to Main Content
SEARCH:
Location Air RH Dwp Precip Type Wind Speed Wind Gust Direction Pavement Temperature Date/Time
Hatem Bridge US 40 E/B 55 100 55 None 12 mph 15 mph N 56 - 56 4/26/2017 5:43:00 AM
I-270 at I-370 55 98 55 None Calm Calm N 56 - 57 4/26/2017 5:40:00 AM
I-270 at MD-109 55 100 55 None Calm 5 mph W 56 - 58 4/26/2017 5:40:00 AM
I-495 at American Legion Bridge 56 100 56 None Calm 4 mph W 57 - 58 4/26/2017 5:40:00 AM
I-68 at MD-219 48 100 48 None Calm Calm N 49 - 51 4/26/2017 5:40:00 AM
I-68 at Savage Mt 47 100 47 None 4 mph 7 mph W 48 - 48 4/26/2017 5:40:00 AM
I-68 at Sideling Hill 53 100 53 None Calm 5 mph NW 55 - 55 4/26/2017 5:40:00 AM
I-68 at WV Line 50 94 48 None Calm Calm N 53 - 54 4/26/2017 5:40:00 AM
I-695 at I-83 56 93 54 None 5 mph 10 mph N 55 - 56 4/26/2017 5:40:00 AM
I-70 at Fred-Wash Co. 52 100 52 None Calm 5 mph NW 54 - 54 4/26/2017 5:40:00 AM
I-70 at I-695 55 99 54 None Calm 5 mph N 55 - 57 4/26/2017 5:40:00 AM
I-70 at I-81 55 100 55 None 4 mph 8 mph N 55 - 55 4/26/2017 5:40:00 AM
I-70 at MD-27 - - - No Data Available - - No Data Available -
I-70 at MD-32 54 98 54 Rain Calm 4 mph NE 56 - 56 4/26/2017 5:40:00 AM
I-83 at MD-137 54 100 54 None Calm 5 mph NW 56 - 56 4/26/2017 5:40:00 AM
I-95 at I-695 NE 56 92 54 None 6 mph 8 mph N 56 - 56 4/26/2017 5:43:00 AM
I-95 at Patuxent River 56 100 56 None 7 mph 13 mph NE 57 - 57 4/26/2017 5:40:00 AM
I-95 at Tydings Bridge 55 97 54 None Calm 8 mph NE 56 - 56 4/26/2017 5:40:00 AM
I-95/495 at I-295 60 90 58 None 4 mph 8 mph N 57 - 58 4/26/2017 5:40:00 AM
I-97 at MD-100 55 98 55 None 7 mph 12 mph NW 56 - 57 4/26/2017 5:40:00 AM
I-97 at MD-32 55 97 54 None 12 mph 18 mph N 56 - 57 4/26/2017 5:40:00 AM
MD 20 at MD 21 56 96 55 None Calm 7 mph NW 57 - 57 4/26/2017 5:40:00 AM
MD 231 at Patuxent River 57 99 56 Rain 7 mph 12 mph N 57 - 58 4/26/2017 5:40:00 AM
MD 260 at Cox Rd 55 100 55 None Calm 5 mph N 58 - 58 4/26/2017 5:40:00 AM
MD-135 at Salt Dome 47 100 47 None Calm Calm NW 49 - 49 4/26/2017 5:40:00 AM
MD-140 at MD-97 53 100 53 None 4 mph 12 mph NE 54 - 54 4/26/2017 5:40:00 AM
MD-200 EB at Bonifant Rd 55 99 55 None Calm 5 mph NW 56 - 57 4/26/2017 5:42:00 AM
MD-200 WB at Muncaster Mill Rd 55 96 54 None Calm Calm N 56 - 58 4/26/2017 5:42:00 AM
MD-213 at Sassafras River 57 100 57 None Calm 9 mph NE 57 - 57 4/26/2017 5:40:00 AM
MD-24 at Rock St Park 55 100 55 None Calm Calm NW 56 - 56 4/26/2017 5:40:00 AM
MD-30 at PA Line 51 100 51 None 6 mph 11 mph N 54 - 54 4/26/2017 5:40:00 AM
MD-301 at MD-305 - - - No Data Available - - No Data Available -
MD-33 at Knapps Narrows Drawbridge - - - No Data Available - - No Data Available -
MD-344 at MD-224 57 97 56 None Calm 4 mph W 58 - 58 4/26/2017 5:40:00 AM
MD-4 at Patuxent River 57 100 57 None - - No Data Available 58 - 58 4/26/2017 5:40:00 AM
MD-404 at Choptank River 55 96 54 None Calm 7 mph N 56 - 58 4/26/2017 5:40:00 AM
MD-43 at MD-150 56 99 56 None Calm 5 mph N 56 - 57 4/26/2017 5:40:00 AM
MD-51 at Oldtown Salt Dome - - - No Data Available - - No Data Available -
MD-64 at MD-418 54 100 54 None Calm Calm NE 55 - 56 4/26/2017 5:40:00 AM
US-1 at Baltimore / Harford Co. Line 55 95 54 None Calm 4 mph NW 56 - 56 4/26/2017 5:40:00 AM
US-1 at Conowingo Dam 56 100 56 None Calm Calm NW 57 - 57 4/26/2017 5:40:00 AM
US-13 at US-113 57 100 57 None 4 mph 8 mph NW 60 - 60 4/26/2017 5:40:00 AM
US-13 at US-50 - - - No Data Available - - No Data Available -
US-15 at MD-140 54 97 54 None Calm Calm NW 55 - 56 4/26/2017 5:40:00 AM
US-301 at MD-5 56 100 56 None Calm 6 mph N 57 - 58 4/26/2017 5:40:00 AM
US-301 at Potomac 60 95 59 None 6 mph 8 mph NW 57 - 59 4/26/2017 5:40:00 AM
US-301 on HWN Bridge 57 98 57 None 14 mph 16 mph NW 59 - 59 4/26/2017 5:43:00 AM
US-340 at MD-180 55 98 54 None Calm 5 mph NW 56 - 57 4/26/2017 5:40:00 AM
US-50 at Choptank 56 100 56 Rain 6 mph 9 mph NW 58 - 58 4/26/2017 5:40:00 AM
US-50 at I-95 57 100 57 None Calm 5 mph NW 57 - 58 4/26/2017 5:40:00 AM
US-50 at MD-2 56 100 56 None Calm 6 mph NW 56 - 57 4/26/2017 5:40:00 AM
US-50 at MD-331 57 94 56 None 8 mph 13 mph N 58 - 58 4/26/2017 5:40:00 AM
US-50 at OC Drawbridge 53 100 53 None Calm Calm NW 56 - 56 4/26/2017 5:40:00 AM
US-50 at Table Rock Rd 45 100 45 None Calm Calm SW 46 - 46 4/26/2017 5:40:00 AM
US-50 Kent Narrow Bridge 56 100 56 None 11 mph 17 mph NW 57 - 57 4/26/2017 5:40:00 AM
WPL Pier 31 56 97 55 Rain 14 mph 13 mph N 57 - 57 4/26/2017 5:42:00 AM
Location Air RH Dwp Precip Type Wind Speed Wind Gust Direction Pavement Temperature Date/Time